메인 페이지
METAR-TAF:

METAR-TAF

공항 :

나소, 바하마

위도: 25-03N, 경도: 077-28W, 고도: 3m

현재 날씨관측

예보는 54분 전, 08:00시(UTC)에 발표되었습니다.
북북동4kt
온도 22°C
습도 69%
기압 1021 hPa
시정 10km 이상
고도 1800ft 상공 구름 조금
고도 8000ft 상공 구름 많음
고도 20000ft 상공 구름 많음

METAR: MYNN 210800Z 03004KT 9999 FEW018 BKN080 BKN200 22/16 A3015

시각: 03:54 (08:54 UTC)

예보

예보는 3 시간 24분 전, 05:30시(UTC)에 발표되었습니다.
예보 대상 시간: 21일 06시부터 22일 06시까지 (UTC)
kt
시정 10km 이상
고도 2000ft 상공 구름 조금
고도 8000ft 상공 구름 많음
고도 20000ft 상공 구름 많음
전환 중
21일 14시부터 21일 16시까지 (UTC)
북동10kt
확률 30%
TE시부터 MP시까지 (UTC)
북동15kt, 순간 최대 풍속 25kt
시정: 7000m
고도 1500ft 상공 구름 조금, 적란운.
고도 1800ft 상공 구름 보통
고도 8000ft 상공 구름 많음
소나기

TAF: MYNN 210530Z 2106/2206 00000KT 9999 FEW020 BKN080 BKN200 BECMG 2114/2116 05010KT PROB30 TEMP0 2118/2200 05015G25KT 7000 SHRA FEW015CB SCT018 BKN080

4,000개 이상의 공항 관측 자료 및 예보 (METAR 및 TAF 보고).

지도상에서 검색 가능한 기상관측소가 노란 점과 빨간 점으로 표시되어 있습니다.

기상관측소 명을 보려면 표시 위로 마우스를 이동하세요.

날씨 관측과 예보를 보려면 클릭하세요.

지도 변경 : 확대하려면 엑스 표시가 있는 녹색 버튼, 축소하려면 빼기 표시가 있는 녹색 버튼, 다음 페이지의 지도를 보려면 녹색 화살표를 클릭하세요.


METAR-TAF: